CheckWX is a tool to help pilots better visualize weather data.  It is not intended as a substitute for an official pre-flight weather briefing.

05:39:58 UTC

KORD TAF
Chicago O'hare International Airport
Chicago, Illinois, USA
KORD 290256Z 2903/3006 01004KT P6SM OVC020 FM291800 04005KT P6SM OVC025 PROB30 2919/3001 P6SM -SHSN

Jan-29@
03:00 UTC

Jan-29 @ 03:00 UTC

Jan-29@
18:00 UTC

Jan-29 @ 18:00 UTC

KORD 290256Z 2903/3006 01004KT P6SM OVC020
Wind
  • 010° at 4 KTS
Cloud Levels
  • Overcast at 2,000' AGL

Jan-29@
18:00 UTC

Jan-29 @ 18:00 UTC

Jan-30@
06:00 UTC

Jan-30 @ 06:00 UTC

FM291800 04005KT P6SM OVC025

From

From Standard forecast or significant change

Wind
  • 040° at 5 KTS
Cloud Levels
  • Overcast at 2,500' AGL

Jan-29@
19:00 UTC

Jan-29 @ 19:00 UTC

Jan-30@
01:00 UTC

Jan-30 @ 01:00 UTC

PROB30 2919/3001 P6SM -SHSN

Probable - 30% Likelihood

Probable - 30% Likelihood during this time.

Conditions
Light Snow